Hauptseite
METAR-TAF:

METAR-TAF

Flughäfen :

Flugplatz Oberpfaffenhofen

Oberpfaffenhofen, Deutschland

Breite: 48-05N, Länge: 011-17E, Höhe: 600 m

Beobachtung

Neuester Wetterbericht von vor 42 Minuten, um 15:20 UTC
Wind 7 kt aus Ost/Nordost
Temperatur 20°C
Luftfeuchtigkeit 73%
Luftdruck 1024 hPa
Sichtweite 10 km oder mehr
Aufgelockert bewölkt in der Höhe von 2700 ft
Durchbrochene Bewölkung in der Höhe von 3100 ft

METAR: EDMO 231520Z 07007KT 9999 SCT027 BKN031 20/15 Q1024

Zeit: 18:02 (16:02 UTC)

Prognose

Neuester Wetterbericht von vor 2 Stunden und 2 Minuten, um 14:00 UTC
Gültige Prognose vom 23 um 15 UTC bis 23 um 24 UTC
Wind 7 kt aus Ost
Sichtweite 10 km oder mehr
Durchbrochene Bewölkung in der Höhe von 3000 ft

TAF: EDMO 231400Z 2315/2324 08007KT 9999 BKN030

Wetterbeobachtungen und Prognosen von mehr als 4000 Flughäfen (METAR und TAF Bericht).

Die verfügbaren Stationen werden durch gelbe und rote Markierungen auf der Karte dargestellt.

Führen Sie die Maus auf sie, um den Namen der Station zu sehen.

Darauf klicken, um die Beobachtung von Wetterbeobachtungen und Prognosen zu sehen.

Um die Karte zu ändern : klicken Sie auf den grünen Tasten mit einem schwarzen Kreuz Zum Vergrößern, auf den grünen Button mit einem Gedankenstrich zu verkleinern, oder auf die grünen Pfeile für benachbarte Karten.


METAR-TAF: